sensor_id;sensor_type;location;lat;lon;timestamp;pressure;altitude;pressure_sealevel;temperature;humidity
20930;BME280;21895;47.072;15.132;2023-03-20T00:02:21;96778.00;;;5.29;71.51
20930;BME280;21895;47.072;15.132;2023-03-20T00:04:48;96787.00;;;5.31;71.27
20930;BME280;21895;47.072;15.132;2023-03-20T00:07:15;96774.00;;;5.33;71.61
20930;BME280;21895;47.072;15.132;2023-03-20T00:09:42;96776.00;;;5.49;72.46
20930;BME280;21895;47.072;15.132;2023-03-20T00:12:14;96785.00;;;5.88;72.49
20930;BME280;21895;47.072;15.132;2023-03-20T00:14:43;96784.00;;;5.76;69.82
20930;BME280;21895;47.072;15.132;2023-03-20T00:17:13;96780.00;;;5.43;69.34
20930;BME280;21895;47.072;15.132;2023-03-20T00:19:43;96783.00;;;5.15;70.22
20930;BME280;21895;47.072;15.132;2023-03-20T00:22:11;96788.00;;;5.13;71.19
20930;BME280;21895;47.072;15.132;2023-03-20T00:24:37;96787.00;;;5.16;70.42
20930;BME280;21895;47.072;15.132;2023-03-20T00:27:04;96782.00;;;4.95;69.44
20930;BME280;21895;47.072;15.132;2023-03-20T00:29:31;96784.00;;;4.63;69.80
20930;BME280;21895;47.072;15.132;2023-03-20T00:31:59;96773.00;;;4.38;70.81
20930;BME280;21895;47.072;15.132;2023-03-20T00:34:27;96772.00;;;4.34;72.09
20930;BME280;21895;47.072;15.132;2023-03-20T00:36:55;96773.00;;;4.30;72.10
20930;BME280;21895;47.072;15.132;2023-03-20T00:39:22;96770.00;;;4.35;72.48
20930;BME280;21895;47.072;15.132;2023-03-20T00:44:49;96774.00;;;4.47;72.44
20930;BME280;21895;47.072;15.132;2023-03-20T00:47:21;96769.00;;;4.52;72.80
20930;BME280;21895;47.072;15.132;2023-03-20T00:49:51;96766.00;;;4.58;72.62
20930;BME280;21895;47.072;15.132;2023-03-20T00:52:21;96771.00;;;4.58;72.02
20930;BME280;21895;47.072;15.132;2023-03-20T00:54:47;96771.00;;;4.42;71.92
20930;BME280;21895;47.072;15.132;2023-03-20T00:57:36;96765.00;;;4.21;72.60
20930;BME280;21895;47.072;15.132;2023-03-20T01:00:34;96769.00;;;4.34;73.06
20930;BME280;21895;47.072;15.132;2023-03-20T01:03:27;96766.00;;;4.42;73.03
20930;BME280;21895;47.072;15.132;2023-03-20T01:05:55;96760.00;;;4.48;73.65
20930;BME280;21895;47.072;15.132;2023-03-20T01:08:24;96754.00;;;4.69;73.27
20930;BME280;21895;47.072;15.132;2023-03-20T01:10:56;96758.00;;;4.75;73.67
20930;BME280;21895;47.072;15.132;2023-03-20T01:13:27;96758.00;;;5.00;74.54
20930;BME280;21895;47.072;15.132;2023-03-20T01:15:56;96758.00;;;5.07;73.42
20930;BME280;21895;47.072;15.132;2023-03-20T01:18:25;96762.00;;;5.14;72.56
20930;BME280;21895;47.072;15.132;2023-03-20T01:20:52;96755.00;;;5.18;71.64
20930;BME280;21895;47.072;15.132;2023-03-20T01:23:20;96765.00;;;5.14;70.43
20930;BME280;21895;47.072;15.132;2023-03-20T01:25:48;96756.00;;;4.85;69.57
20930;BME280;21895;47.072;15.132;2023-03-20T01:28:31;96762.00;;;4.56;70.24
20930;BME280;21895;47.072;15.132;2023-03-20T01:30:57;96761.00;;;4.45;70.62
20930;BME280;21895;47.072;15.132;2023-03-20T01:33:25;96758.00;;;4.35;71.34
20930;BME280;21895;47.072;15.132;2023-03-20T01:35:52;96756.00;;;4.42;71.97
20930;BME280;21895;47.072;15.132;2023-03-20T01:38:23;96758.00;;;4.44;72.11
20930;BME280;21895;47.072;15.132;2023-03-20T01:41:35;96760.00;;;4.43;72.19
20930;BME280;21895;47.072;15.132;2023-03-20T01:44:25;96753.00;;;4.41;72.02
20930;BME280;21895;47.072;15.132;2023-03-20T01:46:53;96750.00;;;4.37;72.38
20930;BME280;21895;47.072;15.132;2023-03-20T01:52:46;96749.00;;;4.23;73.57
20930;BME280;21895;47.072;15.132;2023-03-20T01:55:16;96758.00;;;4.30;73.49
20930;BME280;21895;47.072;15.132;2023-03-20T01:57:43;96762.00;;;4.36;73.84
20930;BME280;21895;47.072;15.132;2023-03-20T02:00:14;96767.00;;;4.54;73.58
20930;BME280;21895;47.072;15.132;2023-03-20T02:02:44;96767.00;;;4.51;73.21
20930;BME280;21895;47.072;15.132;2023-03-20T02:05:17;96765.00;;;4.52;73.47
20930;BME280;21895;47.072;15.132;2023-03-20T02:08:07;96761.00;;;4.49;73.15
20930;BME280;21895;47.072;15.132;2023-03-20T02:10:37;96759.00;;;4.46;72.80
20930;BME280;21895;47.072;15.132;2023-03-20T02:13:06;96750.00;;;4.32;72.83
20930;BME280;21895;47.072;15.132;2023-03-20T02:15:34;96754.00;;;4.28;74.09
20930;BME280;21895;47.072;15.132;2023-03-20T02:18:01;96752.00;;;4.23;73.52
20930;BME280;21895;47.072;15.132;2023-03-20T02:36:47;96755.00;;;4.30;72.92
20930;BME280;21895;47.072;15.132;2023-03-20T02:49:25;96755.00;;;4.55;71.97
20930;BME280;21895;47.072;15.132;2023-03-20T02:52:24;96756.00;;;4.43;73.80
20930;BME280;21895;47.072;15.132;2023-03-20T02:57:40;96761.00;;;4.46;74.46
20930;BME280;21895;47.072;15.132;2023-03-20T03:00:31;96760.00;;;4.58;73.49
20930;BME280;21895;47.072;15.132;2023-03-20T03:03:30;96757.00;;;4.46;73.12
20930;BME280;21895;47.072;15.132;2023-03-20T03:06:16;96761.00;;;4.44;73.44
20930;BME280;21895;47.072;15.132;2023-03-20T03:08:49;96757.00;;;4.30;74.55
20930;BME280;21895;47.072;15.132;2023-03-20T03:11:17;96759.00;;;4.31;75.01
20930;BME280;21895;47.072;15.132;2023-03-20T03:13:54;96763.00;;;4.34;74.91
20930;BME280;21895;47.072;15.132;2023-03-20T03:16:31;96761.00;;;4.45;74.35
20930;BME280;21895;47.072;15.132;2023-03-20T03:19:11;96756.00;;;4.38;74.20
20930;BME280;21895;47.072;15.132;2023-03-20T03:21:40;96757.00;;;4.48;73.94
20930;BME280;21895;47.072;15.132;2023-03-20T03:24:33;96766.00;;;4.44;74.29
20930;BME280;21895;47.072;15.132;2023-03-20T03:27:29;96769.00;;;4.46;74.77
20930;BME280;21895;47.072;15.132;2023-03-20T03:33:28;96773.00;;;4.49;75.48
20930;BME280;21895;47.072;15.132;2023-03-20T03:37:51;96773.00;;;4.58;75.64
20930;BME280;21895;47.072;15.132;2023-03-20T03:47:37;96767.00;;;4.84;75.15
20930;BME280;21895;47.072;15.132;2023-03-20T03:50:28;96769.00;;;4.97;74.62
20930;BME280;21895;47.072;15.132;2023-03-20T03:53:02;96770.00;;;4.87;74.63
20930;BME280;21895;47.072;15.132;2023-03-20T03:55:37;96771.00;;;5.06;74.91
20930;BME280;21895;47.072;15.132;2023-03-20T03:58:16;96779.00;;;5.16;74.81
20930;BME280;21895;47.072;15.132;2023-03-20T04:00:47;96783.00;;;5.28;74.59
20930;BME280;21895;47.072;15.132;2023-03-20T04:03:16;96776.00;;;5.33;74.63
20930;BME280;21895;47.072;15.132;2023-03-20T04:05:46;96788.00;;;5.41;74.37
20930;BME280;21895;47.072;15.132;2023-03-20T04:08:14;96786.00;;;5.52;73.50
20930;BME280;21895;47.072;15.132;2023-03-20T04:10:41;96789.00;;;5.46;74.01
20930;BME280;21895;47.072;15.132;2023-03-20T04:13:08;96791.00;;;5.56;74.27
20930;BME280;21895;47.072;15.132;2023-03-20T04:15:35;96797.00;;;5.71;73.14
20930;BME280;21895;47.072;15.132;2023-03-20T04:18:03;96794.00;;;5.75;73.04
20930;BME280;21895;47.072;15.132;2023-03-20T04:20:29;96795.00;;;5.76;73.29
20930;BME280;21895;47.072;15.132;2023-03-20T04:22:56;96795.00;;;5.73;73.46
20930;BME280;21895;47.072;15.132;2023-03-20T04:25:25;96797.00;;;5.82;73.61
20930;BME280;21895;47.072;15.132;2023-03-20T04:27:54;96794.00;;;5.85;73.49
20930;BME280;21895;47.072;15.132;2023-03-20T04:30:21;96795.00;;;5.89;73.40
20930;BME280;21895;47.072;15.132;2023-03-20T04:32:48;96792.00;;;5.84;73.57
20930;BME280;21895;47.072;15.132;2023-03-20T04:35:14;96796.00;;;5.76;73.92
20930;BME280;21895;47.072;15.132;2023-03-20T04:37:41;96797.00;;;5.71;74.67
20930;BME280;21895;47.072;15.132;2023-03-20T04:40:09;96799.00;;;5.75;74.82
20930;BME280;21895;47.072;15.132;2023-03-20T04:42:35;96807.00;;;5.88;74.51
20930;BME280;21895;47.072;15.132;2023-03-20T04:45:06;96798.00;;;5.94;74.35
20930;BME280;21895;47.072;15.132;2023-03-20T04:47:33;96806.00;;;5.96;74.31
20930;BME280;21895;47.072;15.132;2023-03-20T04:50:00;96805.00;;;6.05;74.27
20930;BME280;21895;47.072;15.132;2023-03-20T04:52:26;96802.00;;;6.13;74.13
20930;BME280;21895;47.072;15.132;2023-03-20T04:54:53;96804.00;;;6.09;74.17
20930;BME280;21895;47.072;15.132;2023-03-20T04:57:19;96800.00;;;6.11;74.33
20930;BME280;21895;47.072;15.132;2023-03-20T04:59:46;96801.00;;;6.09;74.58
20930;BME280;21895;47.072;15.132;2023-03-20T05:02:12;96799.00;;;6.18;74.43
20930;BME280;21895;47.072;15.132;2023-03-20T05:04:41;96802.00;;;6.18;74.09
20930;BME280;21895;47.072;15.132;2023-03-20T05:07:08;96806.00;;;6.12;74.10
20930;BME280;21895;47.072;15.132;2023-03-20T05:09:34;96806.00;;;6.09;74.26
20930;BME280;21895;47.072;15.132;2023-03-20T05:12:01;96807.00;;;6.19;74.09
20930;BME280;21895;47.072;15.132;2023-03-20T05:14:27;96814.00;;;6.27;73.84
20930;BME280;21895;47.072;15.132;2023-03-20T05:16:54;96803.00;;;6.24;74.10
20930;BME280;21895;47.072;15.132;2023-03-20T05:19:21;96810.00;;;6.25;74.33
20930;BME280;21895;47.072;15.132;2023-03-20T05:21:48;96820.00;;;6.29;74.27
20930;BME280;21895;47.072;15.132;2023-03-20T05:24:14;96817.00;;;6.29;74.31
20930;BME280;21895;47.072;15.132;2023-03-20T05:26:41;96825.00;;;6.32;74.51
20930;BME280;21895;47.072;15.132;2023-03-20T05:29:07;96825.00;;;6.42;74.14
20930;BME280;21895;47.072;15.132;2023-03-20T05:31:34;96827.00;;;6.67;73.49
20930;BME280;21895;47.072;15.132;2023-03-20T05:34:00;96827.00;;;6.65;73.27
20930;BME280;21895;47.072;15.132;2023-03-20T05:36:27;96831.00;;;6.56;73.62
20930;BME280;21895;47.072;15.132;2023-03-20T05:38:53;96831.00;;;6.54;74.12
20930;BME280;21895;47.072;15.132;2023-03-20T05:41:20;96845.00;;;6.60;73.93
20930;BME280;21895;47.072;15.132;2023-03-20T05:43:46;96837.00;;;6.73;73.59
20930;BME280;21895;47.072;15.132;2023-03-20T05:46:13;96841.00;;;6.84;73.34
20930;BME280;21895;47.072;15.132;2023-03-20T05:48:41;96844.00;;;6.83;73.67
20930;BME280;21895;47.072;15.132;2023-03-20T05:51:07;96842.00;;;6.91;73.83
20930;BME280;21895;47.072;15.132;2023-03-20T05:53:34;96843.00;;;6.95;73.30
20930;BME280;21895;47.072;15.132;2023-03-20T05:56:00;96845.00;;;7.10;73.51
20930;BME280;21895;47.072;15.132;2023-03-20T05:58:27;96842.00;;;7.21;72.92
20930;BME280;21895;47.072;15.132;2023-03-20T06:00:56;96849.00;;;7.24;72.82
20930;BME280;21895;47.072;15.132;2023-03-20T06:03:22;96848.00;;;7.32;72.37
20930;BME280;21895;47.072;15.132;2023-03-20T06:05:49;96847.00;;;7.41;72.17
20930;BME280;21895;47.072;15.132;2023-03-20T06:08:16;96851.00;;;7.43;71.93
20930;BME280;21895;47.072;15.132;2023-03-20T06:10:42;96853.00;;;7.56;71.41
20930;BME280;21895;47.072;15.132;2023-03-20T06:13:09;96852.00;;;7.65;71.17
20930;BME280;21895;47.072;15.132;2023-03-20T06:15:35;96856.00;;;7.76;70.97
20930;BME280;21895;47.072;15.132;2023-03-20T06:18:02;96863.00;;;7.80;70.69
20930;BME280;21895;47.072;15.132;2023-03-20T06:20:30;96854.00;;;7.92;70.63
20930;BME280;21895;47.072;15.132;2023-03-20T06:22:56;96862.00;;;8.00;70.34
20930;BME280;21895;47.072;15.132;2023-03-20T06:25:23;96861.00;;;8.16;69.55
20930;BME280;21895;47.072;15.132;2023-03-20T06:27:49;96863.00;;;8.30;69.54
20930;BME280;21895;47.072;15.132;2023-03-20T06:30:16;96858.00;;;8.51;69.38
20930;BME280;21895;47.072;15.132;2023-03-20T06:32:43;96859.00;;;8.61;69.06
20930;BME280;21895;47.072;15.132;2023-03-20T06:35:10;96857.00;;;8.71;68.60
20930;BME280;21895;47.072;15.132;2023-03-20T06:37:37;96866.00;;;8.89;68.17
20930;BME280;21895;47.072;15.132;2023-03-20T06:40:05;96866.00;;;8.94;67.81
20930;BME280;21895;47.072;15.132;2023-03-20T06:42:31;96870.00;;;9.11;67.20
20930;BME280;21895;47.072;15.132;2023-03-20T06:44:58;96861.00;;;9.09;67.63
20930;BME280;21895;47.072;15.132;2023-03-20T06:47:24;96868.00;;;9.13;67.73
20930;BME280;21895;47.072;15.132;2023-03-20T06:49:51;96870.00;;;9.25;67.97
20930;BME280;21895;47.072;15.132;2023-03-20T06:52:19;96866.00;;;9.19;67.90
20930;BME280;21895;47.072;15.132;2023-03-20T06:54:50;96871.00;;;9.24;68.05
20930;BME280;21895;47.072;15.132;2023-03-20T06:57:17;96882.00;;;9.39;67.84
20930;BME280;21895;47.072;15.132;2023-03-20T06:59:43;96883.00;;;9.36;67.36
20930;BME280;21895;47.072;15.132;2023-03-20T07:02:10;96876.00;;;9.35;66.83
20930;BME280;21895;47.072;15.132;2023-03-20T07:04:37;96882.00;;;9.44;66.49
20930;BME280;21895;47.072;15.132;2023-03-20T07:07:04;96874.00;;;9.64;66.43
20930;BME280;21895;47.072;15.132;2023-03-20T07:09:30;96876.00;;;9.74;66.67
20930;BME280;21895;47.072;15.132;2023-03-20T07:11:58;96878.00;;;9.86;66.37
20930;BME280;21895;47.072;15.132;2023-03-20T07:14:25;96874.00;;;9.96;66.28
20930;BME280;21895;47.072;15.132;2023-03-20T07:16:51;96879.00;;;10.10;65.86
20930;BME280;21895;47.072;15.132;2023-03-20T07:19:18;96877.00;;;10.21;65.85
20930;BME280;21895;47.072;15.132;2023-03-20T07:21:45;96874.00;;;10.32;65.37
20930;BME280;21895;47.072;15.132;2023-03-20T07:24:11;96885.00;;;10.41;65.59
20930;BME280;21895;47.072;15.132;2023-03-20T07:26:38;96883.00;;;10.50;65.33
20930;BME280;21895;47.072;15.132;2023-03-20T07:29:06;96880.00;;;10.61;65.04
20930;BME280;21895;47.072;15.132;2023-03-20T07:31:33;96882.00;;;10.73;64.44
20930;BME280;21895;47.072;15.132;2023-03-20T07:33:59;96890.00;;;10.76;64.44
20930;BME280;21895;47.072;15.132;2023-03-20T07:36:26;96893.00;;;10.76;64.28
20930;BME280;21895;47.072;15.132;2023-03-20T07:38:52;96893.00;;;10.81;64.14
20930;BME280;21895;47.072;15.132;2023-03-20T07:41:19;96899.00;;;10.87;63.96
20930;BME280;21895;47.072;15.132;2023-03-20T07:43:45;96887.00;;;10.92;63.98
20930;BME280;21895;47.072;15.132;2023-03-20T07:46:12;96897.00;;;11.07;63.74
20930;BME280;21895;47.072;15.132;2023-03-20T07:48:38;96906.00;;;11.13;63.59
20930;BME280;21895;47.072;15.132;2023-03-20T07:51:05;96907.00;;;11.30;63.34
20930;BME280;21895;47.072;15.132;2023-03-20T07:53:32;96900.00;;;11.29;63.19
20930;BME280;21895;47.072;15.132;2023-03-20T07:55:58;96903.00;;;11.28;63.22
20930;BME280;21895;47.072;15.132;2023-03-20T07:58:25;96898.00;;;11.36;62.83
20930;BME280;21895;47.072;15.132;2023-03-20T08:00:56;96903.00;;;11.36;62.56
20930;BME280;21895;47.072;15.132;2023-03-20T08:03:23;96899.00;;;11.40;62.62
20930;BME280;21895;47.072;15.132;2023-03-20T08:05:50;96893.00;;;11.56;62.28
20930;BME280;21895;47.072;15.132;2023-03-20T08:08:17;96904.00;;;11.56;62.53
20930;BME280;21895;47.072;15.132;2023-03-20T08:10:43;96901.00;;;11.48;62.54
20930;BME280;21895;47.072;15.132;2023-03-20T08:13:10;96901.00;;;11.51;62.73
20930;BME280;21895;47.072;15.132;2023-03-20T08:15:36;96908.00;;;11.59;62.65
20930;BME280;21895;47.072;15.132;2023-03-20T08:18:04;96904.00;;;11.60;62.87
20930;BME280;21895;47.072;15.132;2023-03-20T08:20:31;96906.00;;;11.61;62.26
20930;BME280;21895;47.072;15.132;2023-03-20T08:22:58;96910.00;;;11.60;62.62
20930;BME280;21895;47.072;15.132;2023-03-20T08:25:24;96913.00;;;11.62;63.17
20930;BME280;21895;47.072;15.132;2023-03-20T08:27:51;96912.00;;;11.75;63.08
20930;BME280;21895;47.072;15.132;2023-03-20T08:30:17;96912.00;;;11.72;63.33
20930;BME280;21895;47.072;15.132;2023-03-20T08:32:44;96911.00;;;11.74;63.29
20930;BME280;21895;47.072;15.132;2023-03-20T08:35:10;96912.00;;;11.76;63.56
20930;BME280;21895;47.072;15.132;2023-03-20T08:37:57;96911.00;;;11.94;63.14
20930;BME280;21895;47.072;15.132;2023-03-20T08:40:24;96919.00;;;12.11;62.64
20930;BME280;21895;47.072;15.132;2023-03-20T08:42:51;96919.00;;;12.18;62.25
20930;BME280;21895;47.072;15.132;2023-03-20T08:45:17;96919.00;;;12.26;62.27
20930;BME280;21895;47.072;15.132;2023-03-20T08:47:47;96915.00;;;12.37;62.35
20930;BME280;21895;47.072;15.132;2023-03-20T08:50:14;96919.00;;;12.51;62.03
20930;BME280;21895;47.072;15.132;2023-03-20T08:52:41;96914.00;;;12.59;62.32
20930;BME280;21895;47.072;15.132;2023-03-20T08:55:13;96918.00;;;12.66;61.81
20930;BME280;21895;47.072;15.132;2023-03-20T08:57:40;96919.00;;;12.75;61.81
20930;BME280;21895;47.072;15.132;2023-03-20T09:00:12;96918.00;;;12.93;61.11
20930;BME280;21895;47.072;15.132;2023-03-20T09:02:40;96924.00;;;12.93;60.79
20930;BME280;21895;47.072;15.132;2023-03-20T09:05:08;96925.00;;;12.97;60.69
20930;BME280;21895;47.072;15.132;2023-03-20T09:07:35;96927.00;;;12.90;60.10
20930;BME280;21895;47.072;15.132;2023-03-20T09:10:03;96929.00;;;12.95;60.04
20930;BME280;21895;47.072;15.132;2023-03-20T09:12:29;96926.00;;;12.94;60.26
20930;BME280;21895;47.072;15.132;2023-03-20T09:14:58;96930.00;;;13.14;60.13
20930;BME280;21895;47.072;15.132;2023-03-20T09:17:25;96927.00;;;13.23;59.99
20930;BME280;21895;47.072;15.132;2023-03-20T09:19:52;96931.00;;;13.21;59.29
20930;BME280;21895;47.072;15.132;2023-03-20T09:22:19;96933.00;;;13.27;59.20
20930;BME280;21895;47.072;15.132;2023-03-20T09:24:45;96931.00;;;13.19;59.42
20930;BME280;21895;47.072;15.132;2023-03-20T09:27:12;96934.00;;;13.30;59.31
20930;BME280;21895;47.072;15.132;2023-03-20T09:29:42;96935.00;;;13.40;58.51
20930;BME280;21895;47.072;15.132;2023-03-20T09:32:13;96932.00;;;13.50;58.12
20930;BME280;21895;47.072;15.132;2023-03-20T09:34:41;96932.00;;;13.62;57.79
20930;BME280;21895;47.072;15.132;2023-03-20T09:37:07;96929.00;;;13.65;57.85
20930;BME280;21895;47.072;15.132;2023-03-20T09:39:34;96927.00;;;13.69;57.14
20930;BME280;21895;47.072;15.132;2023-03-20T09:43:01;96926.00;;;13.80;56.88
20930;BME280;21895;47.072;15.132;2023-03-20T09:52:26;96928.00;;;14.08;56.89
20930;BME280;21895;47.072;15.132;2023-03-20T09:55:58;96923.00;;;14.24;56.28
20930;BME280;21895;47.072;15.132;2023-03-20T09:58:36;96920.00;;;14.31;55.59
20930;BME280;21895;47.072;15.132;2023-03-20T10:01:05;96918.00;;;14.34;55.67
20930;BME280;21895;47.072;15.132;2023-03-20T10:03:52;96918.00;;;14.33;55.79
20930;BME280;21895;47.072;15.132;2023-03-20T10:06:20;96923.00;;;14.32;55.83
20930;BME280;21895;47.072;15.132;2023-03-20T10:08:47;96913.00;;;14.24;55.93
20930;BME280;21895;47.072;15.132;2023-03-20T10:24:16;96921.00;;;13.94;55.27
20930;BME280;21895;47.072;15.132;2023-03-20T10:26:51;96926.00;;;14.18;55.84
20930;BME280;21895;47.072;15.132;2023-03-20T10:35:03;96929.00;;;13.97;57.35
20930;BME280;21895;47.072;15.132;2023-03-20T10:40:29;96932.00;;;13.84;58.15
20930;BME280;21895;47.072;15.132;2023-03-20T10:43:02;96924.00;;;13.69;59.28
20930;BME280;21895;47.072;15.132;2023-03-20T10:47:02;96920.00;;;13.81;59.51
20930;BME280;21895;47.072;15.132;2023-03-20T10:49:46;96923.00;;;14.04;59.05
20930;BME280;21895;47.072;15.132;2023-03-20T10:52:35;96911.00;;;14.09;59.06
20930;BME280;21895;47.072;15.132;2023-03-20T10:55:14;96913.00;;;14.27;59.03
20930;BME280;21895;47.072;15.132;2023-03-20T10:57:51;96910.00;;;14.36;58.78
20930;BME280;21895;47.072;15.132;2023-03-20T11:00:25;96909.00;;;14.35;58.59
20930;BME280;21895;47.072;15.132;2023-03-20T11:02:52;96908.00;;;14.41;57.93
20930;BME280;21895;47.072;15.132;2023-03-20T11:05:36;96900.00;;;14.66;57.00
20930;BME280;21895;47.072;15.132;2023-03-20T11:08:13;96907.00;;;14.73;55.73
20930;BME280;21895;47.072;15.132;2023-03-20T11:10:42;96902.00;;;14.92;54.58
20930;BME280;21895;47.072;15.132;2023-03-20T11:13:26;96905.00;;;15.10;54.09
20930;BME280;21895;47.072;15.132;2023-03-20T11:15:55;96895.00;;;15.04;53.25
20930;BME280;21895;47.072;15.132;2023-03-20T11:18:25;96897.00;;;15.17;53.67
20930;BME280;21895;47.072;15.132;2023-03-20T11:20:56;96896.00;;;15.39;52.96
20930;BME280;21895;47.072;15.132;2023-03-20T11:23:28;96893.00;;;15.47;52.16
20930;BME280;21895;47.072;15.132;2023-03-20T11:26:03;96891.00;;;15.69;51.77
20930;BME280;21895;47.072;15.132;2023-03-20T11:28:47;96898.00;;;15.84;51.68
20930;BME280;21895;47.072;15.132;2023-03-20T11:34:27;96900.00;;;15.95;51.75
20930;BME280;21895;47.072;15.132;2023-03-20T11:36:58;96893.00;;;16.18;51.34
20930;BME280;21895;47.072;15.132;2023-03-20T11:39:37;96891.00;;;16.23;51.31
20930;BME280;21895;47.072;15.132;2023-03-20T11:42:23;96891.00;;;16.34;51.08
20930;BME280;21895;47.072;15.132;2023-03-20T11:45:00;96886.00;;;16.44;51.06
20930;BME280;21895;47.072;15.132;2023-03-20T11:47:33;96885.00;;;16.59;50.93
20930;BME280;21895;47.072;15.132;2023-03-20T11:50:05;96877.00;;;16.67;50.63
20930;BME280;21895;47.072;15.132;2023-03-20T11:52:36;96883.00;;;16.77;50.16
20930;BME280;21895;47.072;15.132;2023-03-20T11:55:31;96882.00;;;16.98;49.87
20930;BME280;21895;47.072;15.132;2023-03-20T11:58:02;96880.00;;;17.11;49.04
20930;BME280;21895;47.072;15.132;2023-03-20T12:00:37;96875.00;;;17.15;49.08
20930;BME280;21895;47.072;15.132;2023-03-20T12:04:00;96878.00;;;17.22;48.83
20930;BME280;21895;47.072;15.132;2023-03-20T12:07:37;96871.00;;;17.43;48.68
20930;BME280;21895;47.072;15.132;2023-03-20T12:10:10;96860.00;;;17.58;48.51
20930;BME280;21895;47.072;15.132;2023-03-20T12:12:58;96853.00;;;17.59;48.18
20930;BME280;21895;47.072;15.132;2023-03-20T12:15:40;96852.00;;;17.72;48.08
20930;BME280;21895;47.072;15.132;2023-03-20T12:27:43;96843.00;;;17.53;48.53
20930;BME280;21895;47.072;15.132;2023-03-20T12:31:21;96834.00;;;18.14;47.16
20930;BME280;21895;47.072;15.132;2023-03-20T12:34:13;96834.00;;;18.15;46.28
20930;BME280;21895;47.072;15.132;2023-03-20T12:36:45;96827.00;;;18.09;44.68
20930;BME280;21895;47.072;15.132;2023-03-20T12:39:20;96833.00;;;17.97;43.79
20930;BME280;21895;47.072;15.132;2023-03-20T12:42:56;96827.00;;;18.09;43.30
20930;BME280;21895;47.072;15.132;2023-03-20T12:45:51;96833.00;;;18.28;43.63
20930;BME280;21895;47.072;15.132;2023-03-20T12:48:51;96824.00;;;18.05;43.52
20930;BME280;21895;47.072;15.132;2023-03-20T12:51:57;96820.00;;;18.01;43.56
20930;BME280;21895;47.072;15.132;2023-03-20T12:55:15;96816.00;;;17.87;43.28
20930;BME280;21895;47.072;15.132;2023-03-20T12:58:12;96821.00;;;18.00;43.28
20930;BME280;21895;47.072;15.132;2023-03-20T13:01:19;96819.00;;;17.92;43.18
20930;BME280;21895;47.072;15.132;2023-03-20T13:04:56;96812.00;;;18.22;42.77
20930;BME280;21895;47.072;15.132;2023-03-20T13:08:09;96814.00;;;18.40;42.06
20930;BME280;21895;47.072;15.132;2023-03-20T13:10:46;96804.00;;;18.56;42.11
20930;BME280;21895;47.072;15.132;2023-03-20T13:13:58;96803.00;;;18.59;41.28
20930;BME280;21895;47.072;15.132;2023-03-20T13:16:54;96804.00;;;18.86;40.92
20930;BME280;21895;47.072;15.132;2023-03-20T13:20:42;96795.00;;;19.10;40.28
20930;BME280;21895;47.072;15.132;2023-03-20T13:23:32;96802.00;;;18.99;39.93
20930;BME280;21895;47.072;15.132;2023-03-20T13:27:48;96793.00;;;18.82;41.04
20930;BME280;21895;47.072;15.132;2023-03-20T13:30:42;96796.00;;;18.64;40.17
20930;BME280;21895;47.072;15.132;2023-03-20T13:33:49;96793.00;;;18.62;41.11
20930;BME280;21895;47.072;15.132;2023-03-20T13:37:45;96783.00;;;18.61;40.10
20930;BME280;21895;47.072;15.132;2023-03-20T13:40:28;96789.00;;;18.60;39.21
20930;BME280;21895;47.072;15.132;2023-03-20T13:43:46;96790.00;;;18.64;38.99
20930;BME280;21895;47.072;15.132;2023-03-20T13:46:21;96791.00;;;18.61;39.35
20930;BME280;21895;47.072;15.132;2023-03-20T13:48:52;96783.00;;;18.55;39.60
20930;BME280;21895;47.072;15.132;2023-03-20T13:53:07;96783.00;;;18.56;39.50
20930;BME280;21895;47.072;15.132;2023-03-20T13:56:25;96785.00;;;18.59;39.70
20930;BME280;21895;47.072;15.132;2023-03-20T13:59:57;96781.00;;;18.55;39.72
20930;BME280;21895;47.072;15.132;2023-03-20T14:04:12;96779.00;;;18.57;39.24
20930;BME280;21895;47.072;15.132;2023-03-20T14:07:30;96778.00;;;18.81;39.22
20930;BME280;21895;47.072;15.132;2023-03-20T14:13:18;96776.00;;;18.69;39.32
20930;BME280;21895;47.072;15.132;2023-03-20T14:15:55;96778.00;;;18.55;40.18
20930;BME280;21895;47.072;15.132;2023-03-20T14:18:24;96782.00;;;18.49;40.46
20930;BME280;21895;47.072;15.132;2023-03-20T14:21:01;96772.00;;;18.37;40.22
20930;BME280;21895;47.072;15.132;2023-03-20T14:23:47;96764.00;;;18.20;40.86
20930;BME280;21895;47.072;15.132;2023-03-20T14:26:31;96770.00;;;18.10;40.99
20930;BME280;21895;47.072;15.132;2023-03-20T14:29:20;96761.00;;;18.07;41.04
20930;BME280;21895;47.072;15.132;2023-03-20T14:32:02;96766.00;;;17.96;41.40
20930;BME280;21895;47.072;15.132;2023-03-20T14:34:46;96766.00;;;18.00;41.36
20930;BME280;21895;47.072;15.132;2023-03-20T14:37:55;96756.00;;;17.93;41.05
20930;BME280;21895;47.072;15.132;2023-03-20T14:40:31;96755.00;;;17.98;41.09
20930;BME280;21895;47.072;15.132;2023-03-20T14:53:26;96757.00;;;18.24;40.28
20930;BME280;21895;47.072;15.132;2023-03-20T14:56:14;96756.00;;;17.83;40.84
20930;BME280;21895;47.072;15.132;2023-03-20T14:59:03;96761.00;;;17.79;41.08
20930;BME280;21895;47.072;15.132;2023-03-20T15:02:03;96751.00;;;18.00;40.88
20930;BME280;21895;47.072;15.132;2023-03-20T15:04:41;96760.00;;;17.89;41.19
20930;BME280;21895;47.072;15.132;2023-03-20T15:07:29;96751.00;;;17.76;41.43
20930;BME280;21895;47.072;15.132;2023-03-20T15:09:59;96756.00;;;17.76;41.20
20930;BME280;21895;47.072;15.132;2023-03-20T15:12:34;96746.00;;;17.74;41.47
20930;BME280;21895;47.072;15.132;2023-03-20T15:15:05;96738.00;;;17.62;41.85
20930;BME280;21895;47.072;15.132;2023-03-20T15:17:44;96740.00;;;17.52;41.80
20930;BME280;21895;47.072;15.132;2023-03-20T15:20:25;96743.00;;;17.46;41.95
20930;BME280;21895;47.072;15.132;2023-03-20T15:23:00;96739.00;;;17.31;42.26
20930;BME280;21895;47.072;15.132;2023-03-20T15:25:44;96742.00;;;17.20;42.37
20930;BME280;21895;47.072;15.132;2023-03-20T15:28:24;96741.00;;;17.12;42.38